Time;durP1;ratioP1;P1;durP2;ratioP2;P2;SDS_P1;SDS_P2;PMS_P1;PMS_P2;Temp;Humidity;BMP_temperature;BMP_pressure;BME280_temperature;BME280_humidity;BME280_pressure;Samples;Min_cycle;Max_cycle;Signal;HPM_P1;HPM_P2
2024/02/06 00:02:01;;;;;;;117.47;65.45;;;5.70;99.90;;;;;;5010064;28;21249;-79
2024/02/06 00:04:27;;;;;;;92.15;55.70;;;5.70;99.90;;;;;;5011159;28;20040;-79
2024/02/06 00:06:53;;;;;;;100.60;55.88;;;5.90;99.90;;;;;;5012397;28;20363;-79
2024/02/06 00:09:20;;;;;;;89.95;51.58;;;5.80;99.90;;;;;;5012694;28;20045;-81
2024/02/06 00:11:45;;;;;;;85.07;49.08;;;5.80;99.90;;;;;;5011758;28;20037;-79
2024/02/06 00:14:11;;;;;;;89.05;46.55;;;5.60;99.90;;;;;;5010434;28;20871;-79
2024/02/06 00:16:37;;;;;;;88.38;43.65;;;5.60;99.90;;;;;;5012661;28;20034;-79
2024/02/06 00:19:05;;;;;;;84.47;47.95;;;5.60;99.90;;;;;;4992776;28;21038;-79
2024/02/06 00:21:31;;;;;;;79.90;45.20;;;5.60;99.90;;;;;;5011545;28;20692;-78
2024/02/06 00:23:57;;;;;;;85.20;47.75;;;5.70;99.90;;;;;;5012544;28;20083;-79
2024/02/06 00:26:22;;;;;;;84.38;46.13;;;5.70;99.90;;;;;;5010384;28;20030;-79
2024/02/06 00:28:48;;;;;;;76.72;41.47;;;5.60;99.90;;;;;;5011052;28;20052;-79
2024/02/06 00:31:14;;;;;;;84.60;44.10;;;5.40;99.90;;;;;;5012660;28;20029;-78
2024/02/06 00:33:39;;;;;;;77.75;42.30;;;5.20;99.90;;;;;;5011131;28;20041;-78
2024/02/06 00:36:05;;;;;;;89.32;48.83;;;5.00;99.90;;;;;;5011213;28;20084;-78
2024/02/06 00:38:31;;;;;;;76.95;41.90;;;4.90;99.90;;;;;;5011727;28;20491;-80
2024/02/06 00:40:57;;;;;;;76.90;44.22;;;5.00;99.90;;;;;;4979300;28;20466;-79
2024/02/06 00:43:22;;;;;;;79.07;43.67;;;4.90;99.90;;;;;;5011815;28;20037;-79
2024/02/06 00:45:50;;;;;;;82.60;47.20;;;4.80;99.90;;;;;;5011899;28;20115;-78
2024/02/06 00:48:16;;;;;;;81.13;43.83;;;4.90;99.90;;;;;;5009919;28;20038;-79
2024/02/06 00:50:42;;;;;;;81.18;41.50;;;4.90;99.90;;;;;;5011398;28;20036;-79
2024/02/06 00:53:07;;;;;;;78.80;42.40;;;4.90;99.90;;;;;;5012561;28;20042;-79
2024/02/06 00:55:33;;;;;;;82.75;46.88;;;5.00;99.90;;;;;;5010655;28;20822;-79
2024/02/06 00:57:59;;;;;;;104.45;58.17;;;5.00;99.90;;;;;;5010820;28;20045;-78
2024/02/06 01:00:25;;;;;;;84.72;48.08;;;5.10;99.90;;;;;;5010268;28;20029;-79
2024/02/06 01:02:50;;;;;;;90.72;50.83;;;5.20;99.90;;;;;;5009716;28;20033;-79
2024/02/06 01:05:16;;;;;;;96.25;52.67;;;5.10;99.90;;;;;;5010491;28;20132;-82
2024/02/06 01:07:42;;;;;;;84.82;49.97;;;4.80;99.90;;;;;;5013993;28;20037;-78
2024/02/06 01:10:07;;;;;;;96.60;52.65;;;4.70;99.90;;;;;;5012574;28;20042;-78
2024/02/06 01:12:33;;;;;;;92.93;47.28;;;4.80;99.90;;;;;;5015522;28;20033;-79
2024/02/06 01:15:00;;;;;;;88.85;51.08;;;4.90;99.90;;;;;;5014757;28;20057;-79
2024/02/06 01:17:26;;;;;;;94.00;51.72;;;4.80;99.90;;;;;;5012533;28;20038;-79
2024/02/06 01:19:52;;;;;;;88.47;53.80;;;4.80;99.90;;;;;;5015399;28;20160;-78
2024/02/06 01:22:18;;;;;;;91.03;50.60;;;4.80;99.90;;;;;;5015228;28;20038;-79
2024/02/06 01:24:43;;;;;;;92.22;53.40;;;4.90;99.90;;;;;;5012953;28;20034;-78
2024/02/06 01:27:09;;;;;;;97.65;54.10;;;5.20;99.90;;;;;;5015344;28;20030;-78
2024/02/06 01:29:36;;;;;;;93.15;53.03;;;5.20;99.90;;;;;;5013783;28;20069;-79
2024/02/06 01:32:02;;;;;;;95.18;54.10;;;5.20;99.90;;;;;;5013613;28;20041;-78
2024/02/06 01:34:28;;;;;;;96.88;57.78;;;5.30;99.90;;;;;;4997546;28;20163;-78
2024/02/06 01:36:53;;;;;;;95.20;53.42;;;5.20;99.90;;;;;;5013489;28;20045;-78
2024/02/06 01:39:19;;;;;;;103.97;58.13;;;5.40;99.90;;;;;;5013629;28;20044;-79
2024/02/06 01:41:45;;;;;;;103.00;56.03;;;5.30;99.90;;;;;;5014868;28;20030;-79
2024/02/06 01:44:10;;;;;;;94.28;55.83;;;5.30;99.90;;;;;;5013625;28;20055;-78
2024/02/06 01:46:36;;;;;;;98.10;53.63;;;5.30;99.90;;;;;;5013029;28;20034;-79
2024/02/06 01:49:05;;;;;;;101.80;52.88;;;5.30;99.90;;;;;;5013918;28;20045;-78
2024/02/06 01:51:35;;;;;;;101.38;54.50;;;5.30;99.90;;;;;;5013916;28;20034;-78
2024/02/06 01:54:01;;;;;;;101.78;51.20;;;5.30;99.90;;;;;;5014892;28;20029;-78
2024/02/06 01:56:27;;;;;;;99.40;55.28;;;5.20;99.90;;;;;;5012703;28;20071;-79
2024/02/06 01:58:54;;;;;;;105.63;56.80;;;5.10;99.90;;;;;;5012069;28;20083;-79
2024/02/06 02:01:21;;;;;;;104.57;57.22;;;5.10;99.90;;;;;;5014612;28;20071;-78
2024/02/06 02:03:48;;;;;;;112.85;60.80;;;5.10;99.90;;;;;;5013965;28;20037;-78
2024/02/06 02:06:14;;;;;;;117.15;67.65;;;5.10;99.90;;;;;;5012130;28;20509;-79
2024/02/06 02:08:40;;;;;;;131.27;75.03;;;5.00;99.90;;;;;;5013604;28;20052;-79
2024/02/06 02:11:06;;;;;;;125.28;72.38;;;5.10;99.90;;;;;;5012691;28;20554;-78
2024/02/06 02:13:32;;;;;;;130.55;74.00;;;5.00;99.90;;;;;;5012256;28;20033;-78
2024/02/06 02:15:58;;;;;;;134.38;76.15;;;5.00;99.90;;;;;;5013995;28;20037;-79
2024/02/06 02:18:34;;;;;;;131.65;75.65;;;5.00;99.90;;;;;;5012711;28;21089;-78
2024/02/06 02:21:04;;;;;;;134.73;78.30;;;4.90;99.90;;;;;;5011269;28;20038;-78
2024/02/06 02:23:30;;;;;;;134.27;73.65;;;4.90;99.90;;;;;;5011537;28;20080;-78
2024/02/06 02:25:57;;;;;;;139.93;77.40;;;4.80;99.90;;;;;;5013456;28;20034;-78
2024/02/06 02:28:22;;;;;;;138.60;73.93;;;4.90;99.90;;;;;;5011998;28;21319;-78
2024/02/06 02:30:48;;;;;;;133.45;70.32;;;4.90;99.90;;;;;;5014279;28;20379;-78
2024/02/06 02:33:15;;;;;;;132.82;71.50;;;4.90;99.90;;;;;;5012488;28;20037;-78
2024/02/06 02:35:40;;;;;;;125.90;71.28;;;4.70;99.90;;;;;;5012411;28;20033;-78
2024/02/06 02:38:06;;;;;;;117.93;62.10;;;4.70;99.90;;;;;;5013743;28;20033;-78
2024/02/06 02:40:32;;;;;;;130.95;72.10;;;4.70;99.90;;;;;;5012747;28;20037;-79
2024/02/06 02:42:58;;;;;;;129.45;71.07;;;4.80;99.90;;;;;;4993392;28;20557;-78
2024/02/06 02:45:24;;;;;;;131.45;69.38;;;4.80;99.90;;;;;;5013728;28;20051;-79
2024/02/06 02:47:49;;;;;;;128.80;68.90;;;4.80;99.90;;;;;;5011696;28;20057;-78
2024/02/06 02:50:15;;;;;;;123.72;65.05;;;4.80;99.90;;;;;;5012238;28;20060;-78
2024/02/06 02:52:41;;;;;;;122.15;65.55;;;4.70;99.90;;;;;;5013120;28;20037;-78
2024/02/06 02:55:07;;;;;;;124.55;73.55;;;4.70;99.90;;;;;;5011738;28;20040;-78
2024/02/06 02:57:32;;;;;;;147.75;81.53;;;4.60;99.90;;;;;;5010629;28;20547;-78
2024/02/06 02:59:58;;;;;;;137.02;78.85;;;4.50;99.90;;;;;;5011596;28;20037;-78
2024/02/06 03:02:24;;;;;;;158.30;87.20;;;4.50;99.90;;;;;;5009210;28;20544;-78
2024/02/06 03:04:50;;;;;;;133.38;71.97;;;4.50;99.90;;;;;;5010689;28;20630;-78
2024/02/06 03:07:16;;;;;;;128.15;67.82;;;4.60;99.90;;;;;;5014264;28;20041;-79
2024/02/06 03:09:42;;;;;;;137.77;75.47;;;4.70;99.90;;;;;;5011377;28;20100;-79
2024/02/06 03:12:08;;;;;;;138.68;75.38;;;4.60;99.90;;;;;;5012105;28;20033;-78
2024/02/06 03:14:34;;;;;;;139.88;71.32;;;4.60;99.90;;;;;;5013933;28;20036;-79
2024/02/06 03:16:59;;;;;;;149.57;79.95;;;4.70;99.90;;;;;;5010842;28;20463;-79
2024/02/06 03:19:25;;;;;;;141.30;74.45;;;4.60;99.90;;;;;;5010754;28;20037;-78
2024/02/06 03:21:51;;;;;;;148.52;82.40;;;4.50;99.90;;;;;;5013360;28;20038;-78
2024/02/06 03:24:16;;;;;;;157.10;86.72;;;4.50;99.90;;;;;;5011456;28;20029;-79
2024/02/06 03:26:43;;;;;;;151.55;82.35;;;4.60;99.90;;;;;;5010919;28;20037;-79
2024/02/06 03:29:09;;;;;;;157.20;85.70;;;4.70;99.90;;;;;;5012130;28;20046;-78
2024/02/06 03:31:34;;;;;;;158.50;83.63;;;4.70;99.90;;;;;;5011919;28;20037;-78
2024/02/06 03:34:00;;;;;;;154.82;82.22;;;4.90;99.90;;;;;;5012414;28;20040;-78
2024/02/06 03:36:26;;;;;;;153.75;78.35;;;4.80;99.90;;;;;;5012409;28;20037;-78
2024/02/06 03:38:51;;;;;;;162.25;87.53;;;4.80;99.90;;;;;;5013881;28;20041;-79
2024/02/06 03:41:17;;;;;;;169.30;92.78;;;4.70;99.90;;;;;;5015885;28;20030;-78
2024/02/06 03:43:43;;;;;;;154.80;85.03;;;4.70;99.90;;;;;;5017118;28;20037;-79
2024/02/06 03:46:09;;;;;;;166.15;86.20;;;4.60;99.90;;;;;;5014642;28;20483;-78
2024/02/06 03:48:35;;;;;;;156.52;90.28;;;4.60;99.90;;;;;;5014553;28;20100;-78
2024/02/06 03:51:02;;;;;;;150.90;77.78;;;4.50;99.90;;;;;;5014000;28;20120;-78
2024/02/06 03:53:28;;;;;;;148.00;78.47;;;4.50;99.90;;;;;;5015307;28;20030;-78
2024/02/06 03:55:53;;;;;;;144.55;78.20;;;4.50;99.90;;;;;;5014181;28;20040;-78
2024/02/06 03:58:19;;;;;;;160.65;86.45;;;4.60;99.90;;;;;;5015472;28;20033;-78
2024/02/06 04:00:49;;;;;;;177.93;98.80;;;4.50;99.90;;;;;;5014044;28;20046;-78
2024/02/06 04:03:17;;;;;;;170.40;88.60;;;4.50;99.90;;;;;;5013590;28;20091;-79
2024/02/06 04:05:42;;;;;;;162.40;86.47;;;4.50;99.90;;;;;;5012301;28;20072;-78
2024/02/06 04:08:09;;;;;;;159.13;83.10;;;4.50;99.90;;;;;;4979763;28;20407;-78
2024/02/06 04:10:35;;;;;;;167.90;89.03;;;4.40;99.90;;;;;;5011164;28;20050;-78
2024/02/06 04:13:01;;;;;;;160.90;87.68;;;4.50;99.90;;;;;;5012128;28;20027;-82
2024/02/06 04:15:27;;;;;;;169.13;83.07;;;4.50;99.90;;;;;;5012388;28;20052;-78
2024/02/06 04:17:52;;;;;;;173.23;97.78;;;4.50;99.90;;;;;;5009677;28;20030;-78
2024/02/06 04:20:18;;;;;;;165.95;88.35;;;4.40;99.90;;;;;;5010202;28;20022;-78
2024/02/06 04:22:44;;;;;;;168.02;94.50;;;4.40;99.90;;;;;;5010583;28;20099;-78
2024/02/06 04:25:09;;;;;;;157.77;86.18;;;4.40;99.90;;;;;;4991485;28;20065;-78
2024/02/06 04:27:35;;;;;;;158.20;84.90;;;4.40;99.90;;;;;;5009664;28;20029;-78
2024/02/06 04:30:01;;;;;;;156.13;83.15;;;4.40;99.90;;;;;;5009174;28;21008;-78
2024/02/06 04:32:27;;;;;;;156.70;80.97;;;4.40;99.90;;;;;;5009114;28;20116;-78
2024/02/06 04:34:53;;;;;;;160.30;86.07;;;4.40;99.90;;;;;;5010887;28;20061;-78
2024/02/06 04:37:19;;;;;;;158.60;81.97;;;4.30;99.90;;;;;;5010003;28;20811;-80
2024/02/06 04:39:44;;;;;;;150.60;76.57;;;4.30;99.90;;;;;;5010764;28;20033;-78
2024/02/06 04:42:10;;;;;;;151.85;83.60;;;4.30;99.90;;;;;;5009221;28;20043;-78
2024/02/06 04:44:36;;;;;;;172.32;92.07;;;4.30;99.90;;;;;;5010833;28;20132;-78
2024/02/06 04:47:01;;;;;;;172.82;89.88;;;4.40;99.90;;;;;;5013626;28;20739;-78
2024/02/06 04:49:27;;;;;;;159.20;84.57;;;4.30;99.90;;;;;;5010226;28;20112;-78
2024/02/06 04:51:53;;;;;;;167.05;85.32;;;4.30;99.90;;;;;;5011086;28;20033;-78
2024/02/06 04:54:19;;;;;;;166.35;85.32;;;4.30;99.90;;;;;;5010402;28;20033;-78
2024/02/06 04:56:45;;;;;;;152.35;82.50;;;4.30;99.90;;;;;;5013152;28;20072;-78
2024/02/06 04:59:12;;;;;;;155.32;84.00;;;4.30;99.90;;;;;;5010323;28;20037;-78
2024/02/06 05:01:38;;;;;;;156.68;80.75;;;4.50;99.90;;;;;;4991597;28;20047;-78
2024/02/06 05:04:03;;;;;;;143.10;77.78;;;4.60;99.90;;;;;;5010983;28;20034;-78
2024/02/06 05:06:29;;;;;;;145.90;80.60;;;4.60;99.90;;;;;;5011585;28;20052;-78
2024/02/06 05:08:55;;;;;;;156.10;85.22;;;4.50;99.90;;;;;;5011593;28;20131;-78
2024/02/06 05:11:20;;;;;;;150.80;80.35;;;4.70;99.90;;;;;;5012232;28;20472;-78
2024/02/06 05:13:46;;;;;;;158.48;91.95;;;4.60;99.90;;;;;;5012644;28;20537;-78
2024/02/06 05:16:11;;;;;;;161.52;87.72;;;4.60;99.90;;;;;;5010369;28;20514;-77
2024/02/06 05:18:37;;;;;;;152.32;79.40;;;4.50;99.90;;;;;;5010933;28;20029;-78
2024/02/06 05:21:03;;;;;;;149.57;78.65;;;4.60;99.90;;;;;;5012065;28;20815;-78
2024/02/06 05:23:28;;;;;;;173.10;90.22;;;4.60;99.90;;;;;;5013021;28;20442;-77
2024/02/06 05:25:54;;;;;;;155.60;82.68;;;4.70;99.90;;;;;;5011294;28;20064;-78
2024/02/06 05:28:20;;;;;;;145.32;79.57;;;4.70;99.90;;;;;;5010135;28;20657;-78
2024/02/06 05:30:46;;;;;;;147.15;76.95;;;4.60;99.90;;;;;;5012180;28;20033;-78
2024/02/06 05:33:12;;;;;;;150.25;78.68;;;4.50;99.90;;;;;;5010845;28;20053;-77
2024/02/06 05:35:37;;;;;;;156.85;82.97;;;4.60;99.90;;;;;;5010352;28;20073;-78
2024/02/06 05:38:04;;;;;;;171.45;96.32;;;4.60;99.90;;;;;;5012490;28;20032;-79
2024/02/06 05:40:29;;;;;;;160.90;84.50;;;4.50;99.90;;;;;;5010018;28;20025;-78
2024/02/06 05:42:55;;;;;;;160.57;84.88;;;4.70;99.90;;;;;;5009894;28;20060;-78
2024/02/06 05:45:21;;;;;;;157.05;86.07;;;4.70;99.90;;;;;;5013621;28;20394;-78
2024/02/06 05:47:47;;;;;;;151.50;78.47;;;4.80;99.90;;;;;;5011701;28;20144;-78
2024/02/06 05:50:13;;;;;;;146.65;74.80;;;4.80;99.90;;;;;;5010128;28;20038;-78
2024/02/06 05:52:39;;;;;;;146.27;76.90;;;4.90;99.90;;;;;;5010535;28;20037;-79
2024/02/06 05:55:06;;;;;;;152.25;78.78;;;4.80;99.90;;;;;;5011388;28;20049;-78
2024/02/06 05:57:32;;;;;;;140.00;76.28;;;4.90;99.90;;;;;;5009295;28;20049;-78
2024/02/06 05:59:58;;;;;;;143.18;75.43;;;4.90;99.90;;;;;;5010208;28;20048;-79
2024/02/06 06:02:23;;;;;;;143.98;74.05;;;4.90;99.90;;;;;;5009691;28;20036;-78
2024/02/06 06:04:49;;;;;;;144.27;74.13;;;4.90;99.90;;;;;;5011668;28;20025;-78
2024/02/06 06:07:15;;;;;;;145.98;76.75;;;4.90;99.90;;;;;;5010046;28;20069;-78
2024/02/06 06:09:40;;;;;;;150.82;81.50;;;5.00;99.90;;;;;;5009955;28;20179;-79
2024/02/06 06:12:06;;;;;;;149.95;73.88;;;5.00;99.90;;;;;;5010310;28;20029;-78
2024/02/06 06:14:32;;;;;;;143.40;74.18;;;5.00;99.90;;;;;;5011429;28;20041;-78
2024/02/06 06:16:57;;;;;;;135.35;70.10;;;5.00;99.90;;;;;;5010742;28;20073;-78
2024/02/06 06:19:23;;;;;;;148.38;76.43;;;5.00;99.90;;;;;;5009081;28;20095;-78
2024/02/06 06:21:49;;;;;;;149.15;75.97;;;5.00;99.90;;;;;;5010275;28;20033;-78
2024/02/06 06:24:15;;;;;;;140.68;76.97;;;5.00;99.90;;;;;;5011808;28;20041;-76
2024/02/06 06:26:41;;;;;;;153.55;80.47;;;4.90;99.90;;;;;;5007490;28;20491;-75
2024/02/06 06:29:08;;;;;;;148.13;76.15;;;4.80;99.90;;;;;;5008170;28;20055;-77
2024/02/06 06:31:34;;;;;;;149.80;77.88;;;4.80;99.90;;;;;;5007031;28;20056;-77
2024/02/06 06:34:00;;;;;;;143.95;77.05;;;4.80;99.90;;;;;;5007775;28;20021;-77
2024/02/06 06:36:26;;;;;;;143.15;73.55;;;4.90;99.90;;;;;;4993504;28;20041;-78
2024/02/06 06:38:54;;;;;;;149.60;75.20;;;5.00;99.90;;;;;;5010797;28;20037;-78
2024/02/06 06:41:22;;;;;;;142.93;78.72;;;5.00;99.90;;;;;;5008659;28;20037;-77
2024/02/06 06:43:48;;;;;;;137.13;70.50;;;4.90;99.90;;;;;;5011423;28;20030;-76
2024/02/06 06:46:13;;;;;;;155.93;80.63;;;4.90;99.90;;;;;;5010155;28;20514;-77
2024/02/06 06:48:39;;;;;;;145.07;79.38;;;4.90;99.90;;;;;;5011504;28;20691;-77
2024/02/06 06:51:05;;;;;;;150.70;77.28;;;4.90;99.90;;;;;;5009658;28;20037;-77
2024/02/06 06:53:30;;;;;;;152.90;79.53;;;5.00;99.90;;;;;;5009498;28;20038;-76
2024/02/06 06:55:56;;;;;;;144.52;74.68;;;5.00;99.90;;;;;;5011400;28;20044;-76
2024/02/06 06:58:21;;;;;;;141.02;77.65;;;5.10;99.90;;;;;;5010063;28;21400;-77
2024/02/06 07:00:47;;;;;;;141.63;75.93;;;5.10;99.90;;;;;;5014764;28;20432;-76
2024/02/06 07:03:13;;;;;;;147.43;77.88;;;5.20;99.90;;;;;;5012829;28;20499;-76
2024/02/06 07:05:39;;;;;;;147.75;76.97;;;5.10;99.90;;;;;;5009319;28;20052;-78
2024/02/06 07:08:05;;;;;;;156.75;84.72;;;5.00;99.90;;;;;;5008425;28;20126;-76
2024/02/06 07:10:31;;;;;;;158.30;83.28;;;4.90;99.90;;;;;;5008100;28;20406;-76
2024/02/06 07:12:56;;;;;;;147.60;79.70;;;5.00;99.90;;;;;;5009946;28;20044;-77
2024/02/06 07:15:22;;;;;;;150.13;81.85;;;5.00;99.90;;;;;;5008326;28;20339;-77
2024/02/06 07:17:48;;;;;;;140.32;74.18;;;5.00;99.90;;;;;;4993274;28;20091;-78
2024/02/06 07:20:14;;;;;;;147.57;75.70;;;5.10;99.90;;;;;;5012802;28;20140;-77
2024/02/06 07:22:40;;;;;;;141.93;74.03;;;5.20;99.90;;;;;;5011925;28;20042;-76
2024/02/06 07:25:06;;;;;;;139.55;73.78;;;5.30;99.90;;;;;;5009710;28;20445;-77
2024/02/06 07:27:32;;;;;;;139.07;74.78;;;5.30;99.90;;;;;;5011922;28;20037;-76
2024/02/06 07:30:00;;;;;;;134.27;72.15;;;5.40;99.90;;;;;;5009379;28;20102;-77
2024/02/06 07:32:26;;;;;;;139.30;76.97;;;5.40;99.90;;;;;;5011757;28;20103;-76
2024/02/06 07:34:51;;;;;;;146.00;75.38;;;5.40;99.90;;;;;;5010585;28;20705;-77
2024/02/06 07:37:17;;;;;;;150.77;75.43;;;5.30;99.90;;;;;;5010900;28;20042;-78
2024/02/06 07:39:43;;;;;;;149.23;78.15;;;5.30;99.90;;;;;;5011852;28;20908;-78
2024/02/06 07:42:08;;;;;;;147.45;78.35;;;5.30;99.90;;;;;;5011295;28;20394;-76
2024/02/06 07:44:34;;;;;;;148.55;76.93;;;5.20;99.90;;;;;;5010147;28;20672;-76
2024/02/06 07:47:00;;;;;;;161.65;81.82;;;5.30;99.90;;;;;;5010624;28;20041;-78
2024/02/06 07:49:26;;;;;;;135.40;71.82;;;5.30;99.90;;;;;;5009267;28;20098;-75
2024/02/06 07:51:51;;;;;;;142.82;73.88;;;5.20;99.90;;;;;;5007451;28;20502;-75
2024/02/06 07:54:17;;;;;;;151.02;81.47;;;5.30;99.90;;;;;;5010396;28;20376;-75
2024/02/06 07:56:42;;;;;;;141.98;74.43;;;5.20;99.90;;;;;;5009292;28;20459;-75
2024/02/06 07:59:11;;;;;;;141.88;76.07;;;5.20;99.90;;;;;;5008976;28;20058;-75
2024/02/06 08:01:38;;;;;;;151.82;77.80;;;5.40;99.90;;;;;;5010070;28;20067;-77
2024/02/06 08:04:04;;;;;;;142.32;74.15;;;5.50;99.90;;;;;;5009246;28;20040;-77
2024/02/06 08:06:30;;;;;;;140.63;73.32;;;5.60;99.90;;;;;;5008178;28;20132;-78
2024/02/06 08:08:56;;;;;;;133.73;70.35;;;5.70;99.90;;;;;;5010187;28;20110;-77
2024/02/06 08:11:23;;;;;;;141.82;74.65;;;5.70;99.90;;;;;;5009113;28;20033;-77
2024/02/06 08:13:49;;;;;;;139.77;72.25;;;5.70;99.90;;;;;;5009146;28;20029;-75
2024/02/06 08:16:15;;;;;;;153.23;79.28;;;5.60;99.90;;;;;;5009100;28;20076;-77
2024/02/06 08:18:41;;;;;;;144.63;77.45;;;5.50;99.90;;;;;;5008423;28;20252;-77
2024/02/06 08:21:07;;;;;;;142.45;74.75;;;5.50;99.90;;;;;;5009837;28;20984;-80
2024/02/06 08:23:33;;;;;;;140.32;70.93;;;5.40;99.90;;;;;;5010377;28;20030;-79
2024/02/06 08:25:58;;;;;;;139.40;74.30;;;5.50;99.90;;;;;;5008933;28;20479;-81
2024/02/06 08:28:24;;;;;;;141.88;79.22;;;5.50;99.90;;;;;;5005184;28;20056;-78
2024/02/06 08:30:51;;;;;;;139.50;72.47;;;5.60;99.90;;;;;;5004635;28;20056;-78
2024/02/06 08:33:17;;;;;;;140.82;71.28;;;5.70;99.90;;;;;;5008181;28;20048;-78
2024/02/06 08:35:43;;;;;;;140.10;71.05;;;5.90;99.90;;;;;;5010664;28;20033;-77
2024/02/06 08:38:08;;;;;;;141.63;72.63;;;5.90;99.90;;;;;;5008583;28;20029;-78
2024/02/06 08:40:34;;;;;;;139.10;75.93;;;5.70;99.90;;;;;;5008720;28;20044;-77
2024/02/06 08:43:01;;;;;;;135.85;71.68;;;6.20;99.90;;;;;;5011031;28;20041;-77
2024/02/06 08:45:27;;;;;;;132.15;67.72;;;6.10;99.90;;;;;;5009535;28;20065;-79
2024/02/06 08:47:52;;;;;;;127.57;67.43;;;6.00;99.90;;;;;;5010405;28;20467;-78
2024/02/06 08:50:18;;;;;;;126.05;67.43;;;5.90;99.90;;;;;;5010996;28;20041;-79
2024/02/06 08:52:44;;;;;;;131.43;64.38;;;6.00;99.90;;;;;;5011591;28;20060;-79
2024/02/06 08:55:10;;;;;;;116.47;64.80;;;6.00;99.90;;;;;;5011642;28;20034;-75
2024/02/06 08:57:36;;;;;;;106.85;56.13;;;6.30;99.90;;;;;;5012432;28;20152;-74
2024/02/06 09:00:07;;;;;;;111.47;58.05;;;7.00;99.90;;;;;;5010638;28;20672;-77
2024/02/06 09:02:33;;;;;;;120.57;63.03;;;6.60;99.90;;;;;;5009686;28;20034;-78
2024/02/06 09:04:59;;;;;;;113.95;60.53;;;6.20;99.90;;;;;;5011400;28;20041;-76
2024/02/06 09:07:25;;;;;;;106.25;53.58;;;5.80;99.90;;;;;;5010711;28;20505;-77
2024/02/06 09:09:56;;;;;;;105.18;55.05;;;5.70;99.90;;;;;;5011129;28;21286;-77
2024/02/06 09:12:22;;;;;;;105.63;57.90;;;5.60;99.90;;;;;;5013035;28;20151;-77
2024/02/06 09:14:48;;;;;;;103.07;54.92;;;5.60;99.90;;;;;;5009335;28;20045;-76
2024/02/06 09:17:13;;;;;;;98.78;54.78;;;5.80;99.90;;;;;;5009874;28;20037;-76
2024/02/06 09:19:40;;;;;;;113.18;56.63;;;6.00;99.90;;;;;;5011942;28;20037;-75
2024/02/06 09:22:06;;;;;;;110.20;56.95;;;6.20;99.90;;;;;;5009672;28;20033;-75
2024/02/06 09:24:31;;;;;;;88.20;52.95;;;6.30;99.90;;;;;;5011539;28;20399;-72
2024/02/06 09:26:57;;;;;;;93.93;51.20;;;6.60;99.90;;;;;;5008512;28;26062;-76
2024/02/06 09:29:23;;;;;;;90.22;49.55;;;6.80;99.90;;;;;;5009737;28;20495;-76
2024/02/06 09:31:49;;;;;;;88.55;46.65;;;6.50;99.90;;;;;;5011867;28;20053;-75
2024/02/06 09:34:15;;;;;;;89.47;45.60;;;6.40;99.90;;;;;;5007408;28;20443;-75
2024/02/06 09:36:42;;;;;;;97.75;47.75;;;6.40;99.90;;;;;;5010318;28;20479;-75
2024/02/06 09:39:09;;;;;;;93.07;48.38;;;6.30;99.90;;;;;;5011366;28;20033;-74
2024/02/06 09:41:38;;;;;;;93.30;49.58;;;6.20;99.90;;;;;;5009055;28;20188;-75
2024/02/06 09:44:05;;;;;;;86.60;45.63;;;6.30;99.90;;;;;;5008908;28;20037;-75
2024/02/06 09:46:30;;;;;;;83.95;46.25;;;6.40;99.90;;;;;;5007196;28;20045;-75
2024/02/06 09:48:56;;;;;;;76.60;42.58;;;6.40;99.90;;;;;;5010399;28;20041;-76
2024/02/06 09:51:25;;;;;;;81.85;42.75;;;6.40;99.90;;;;;;5009806;28;20032;-75
2024/02/06 09:53:57;;;;;;;80.05;41.85;;;6.30;99.90;;;;;;5009875;28;20545;-76
2024/02/06 09:56:27;;;;;;;73.05;39.38;;;6.20;99.90;;;;;;5010686;28;20111;-76
2024/02/06 09:58:53;;;;;;;77.47;42.65;;;6.20;99.90;;;;;;5007880;28;20687;-76
2024/02/06 10:01:21;;;;;;;78.13;43.40;;;6.00;99.90;;;;;;5009194;28;20476;-76
2024/02/06 10:03:51;;;;;;;76.43;42.03;;;5.90;99.90;;;;;;5011461;28;20038;-76
2024/02/06 10:06:22;;;;;;;81.18;40.80;;;6.00;99.90;;;;;;5010305;28;20092;-76
2024/02/06 10:08:51;;;;;;;84.75;45.67;;;6.00;99.90;;;;;;5009459;28;20528;-76
2024/02/06 10:11:20;;;;;;;80.43;41.95;;;6.00;99.90;;;;;;5011328;28;20033;-76
2024/02/06 10:13:46;;;;;;;71.45;40.28;;;6.10;99.90;;;;;;5009795;28;20400;-77
2024/02/06 10:16:12;;;;;;;72.00;38.65;;;6.40;99.90;;;;;;5008061;28;20037;-76
2024/02/06 10:18:52;;;;;;;75.10;38.60;;;6.50;99.90;;;;;;5008747;28;20083;-76
2024/02/06 10:21:18;;;;;;;72.93;39.10;;;6.40;99.90;;;;;;5010389;28;20499;-76
2024/02/06 10:23:43;;;;;;;80.28;40.95;;;6.50;99.90;;;;;;5009523;28;20037;-76
2024/02/06 10:26:09;;;;;;;81.93;42.95;;;6.70;99.90;;;;;;5008577;28;20087;-76
2024/02/06 10:28:36;;;;;;;79.05;42.75;;;6.90;99.90;;;;;;5009188;28;20036;-76
2024/02/06 10:31:10;;;;;;;90.22;53.22;;;7.00;99.90;;;;;;5007566;28;20057;-76
2024/02/06 10:33:35;;;;;;;85.35;45.53;;;7.10;99.90;;;;;;5009264;28;20033;-77
2024/02/06 10:36:01;;;;;;;97.30;50.42;;;7.30;99.90;;;;;;5008590;28;20118;-77
2024/02/06 10:38:27;;;;;;;105.40;58.20;;;7.40;99.90;;;;;;5009129;28;20059;-77
2024/02/06 10:40:53;;;;;;;104.32;52.63;;;7.30;99.90;;;;;;5006321;28;21267;-77
2024/02/06 10:43:19;;;;;;;89.82;47.47;;;7.40;99.90;;;;;;5009462;28;20040;-77
2024/02/06 10:45:45;;;;;;;92.78;48.10;;;7.50;99.90;;;;;;5007310;28;20544;-76
2024/02/06 10:48:14;;;;;;;92.60;48.10;;;7.50;99.90;;;;;;5007470;28;20036;-76
2024/02/06 10:50:40;;;;;;;86.22;46.22;;;7.50;99.90;;;;;;5007744;28;20043;-76
2024/02/06 10:53:06;;;;;;;87.28;46.88;;;7.60;99.90;;;;;;5009513;28;20037;-76
2024/02/06 10:55:31;;;;;;;80.53;43.58;;;7.80;99.90;;;;;;5007617;28;20041;-76
2024/02/06 10:58:05;;;;;;;81.10;44.20;;;8.00;99.90;;;;;;5009676;28;20087;-77
2024/02/06 11:00:33;;;;;;;83.32;42.95;;;8.10;99.90;;;;;;5005894;28;20070;-76
2024/02/06 11:03:05;;;;;;;88.50;44.75;;;8.20;99.90;;;;;;5006620;28;20033;-77
2024/02/06 11:05:45;;;;;;;84.88;46.42;;;8.20;99.90;;;;;;5004487;28;20182;-77
2024/02/06 11:08:20;;;;;;;87.22;48.78;;;8.10;99.90;;;;;;5007520;28;20065;-77
2024/02/06 11:10:51;;;;;;;102.25;51.47;;;8.20;99.90;;;;;;5009658;28;20407;-76
2024/02/06 11:13:28;;;;;;;97.03;49.55;;;8.50;99.90;;;;;;5009168;28;20041;-76
2024/02/06 11:15:57;;;;;;;92.40;48.65;;;8.50;99.90;;;;;;5007820;28;20482;-77
2024/02/06 11:18:27;;;;;;;97.60;49.15;;;8.50;99.90;;;;;;5006320;28;20029;-76
2024/02/06 11:20:54;;;;;;;96.47;47.38;;;8.60;99.90;;;;;;5009796;28;20037;-77
2024/02/06 11:23:22;;;;;;;95.00;50.05;;;8.80;99.90;;;;;;5007493;28;20107;-77
2024/02/06 11:25:51;;;;;;;96.55;53.88;;;8.90;99.90;;;;;;5008723;28;20056;-77
2024/02/06 11:28:18;;;;;;;105.40;50.78;;;8.80;99.90;;;;;;5008070;28;20038;-77
2024/02/06 11:30:44;;;;;;;106.05;54.60;;;8.70;99.90;;;;;;5008499;28;20046;-77
2024/02/06 11:33:14;;;;;;;105.43;54.90;;;8.70;99.90;;;;;;5007550;28;20598;-77
2024/02/06 11:35:43;;;;;;;96.68;50.75;;;8.60;99.90;;;;;;5009313;28;20739;-77
2024/02/06 11:38:11;;;;;;;100.53;50.58;;;8.80;99.90;;;;;;5005184;28;20034;-76
2024/02/06 11:40:39;;;;;;;106.55;54.20;;;8.80;99.90;;;;;;5006305;28;20035;-77
2024/02/06 11:43:06;;;;;;;93.15;48.20;;;8.90;99.90;;;;;;5009424;28;20378;-76
2024/02/06 11:45:37;;;;;;;104.30;53.67;;;9.00;99.90;;;;;;5008432;28;20037;-77
2024/02/06 11:48:08;;;;;;;104.25;52.00;;;9.10;99.90;;;;;;5005936;28;20038;-76
2024/02/06 11:50:41;;;;;;;100.10;55.00;;;9.10;99.90;;;;;;5007489;28;20045;-76
2024/02/06 11:53:14;;;;;;;111.32;54.50;;;9.20;99.90;;;;;;5008944;28;20107;-76
2024/02/06 11:55:46;;;;;;;106.70;56.88;;;9.40;99.90;;;;;;5008700;28;21242;-76
2024/02/06 11:58:13;;;;;;;97.55;49.88;;;9.60;99.90;;;;;;5007454;28;20623;-75
2024/02/06 12:00:39;;;;;;;96.95;50.88;;;9.50;99.90;;;;;;5010904;28;20533;-75
2024/02/06 12:03:04;;;;;;;92.82;50.45;;;9.60;99.90;;;;;;5012702;28;20053;-77
2024/02/06 12:05:38;;;;;;;100.97;49.53;;;9.70;99.90;;;;;;5011880;28;22000;-77
2024/02/06 12:08:08;;;;;;;97.93;52.40;;;9.80;99.90;;;;;;4984544;28;20046;-77
2024/02/06 12:10:35;;;;;;;93.15;49.63;;;9.80;99.90;;;;;;5011467;28;21082;-76
2024/02/06 12:13:07;;;;;;;90.88;48.08;;;9.80;99.90;;;;;;5013196;28;20108;-77
2024/02/06 12:15:34;;;;;;;91.78;49.03;;;9.80;99.90;;;;;;5009863;28;20036;-75
2024/02/06 12:18:04;;;;;;;91.45;47.00;;;10.00;99.90;;;;;;5009339;28;20033;-78
2024/02/06 12:20:30;;;;;;;98.88;48.10;;;10.00;99.90;;;;;;5009598;28;20037;-77
2024/02/06 12:23:14;;;;;;;89.45;45.38;;;9.90;99.90;;;;;;5005439;28;20702;-78
2024/02/06 12:25:40;;;;;;;87.60;46.80;;;9.90;99.90;;;;;;5007439;28;20723;-77
2024/02/06 12:28:18;;;;;;;96.25;49.70;;;9.90;99.90;;;;;;5007991;28;20033;-77